LKZ weather

RAF Lakenheath
Lakenheath, England, United Kingdom

Public forecast

Using degrees Celsius for public forecast. Weather courtesy of forecast.io.

Current aviation weather report (METAR) for RAF Lakenheath

Retrieved 2019/11/20 21:56 UTC (1 hour ago):

EGUL 202156Z 11004KT 9999 CLR 04/01 A2981 RMK AO2A SLPNO WND DATA ESTMD ALSTG ESTMD LAST

Aviation forecast (TAF) for RAF Lakenheath

Retrieved 2019/11/20 21:09 UTC (2 hours ago):

TAF TAF EGUL 202105Z 2021/2203 13009KT 9999 SCT035 SCT250 QNH2977INS BECMG 2105/2106 12009KT 9999 BKN020 QNH2964INS BECMG 2110/2111 11010G15KT 9999 BKN015 QNH2965INS BECMG 2113/2114 10009KT 9999 BKN007 QNH2958INS TEMPO 2118/2121 BKN015 BECMG 2120/2121 13006KT 9999 SCT015 QNH2953INS TX07/2113Z TN01/2101Z